createdAt,value
2024-05-09T00:00:43.359Z,99969.19
2024-05-09T00:03:30.964Z,99968.23
2024-05-09T00:05:58.523Z,99966.17
2024-05-09T00:08:26.006Z,99968.48
2024-05-09T00:10:53.676Z,99964.58
2024-05-09T00:13:21.184Z,99966.02
2024-05-09T00:15:48.577Z,99964.22
2024-05-09T00:18:16.299Z,99966.64
2024-05-09T00:20:44.082Z,99967.81
2024-05-09T00:23:13.503Z,99961.33
2024-05-09T00:25:44.945Z,99964.77
2024-05-09T00:28:13.574Z,99963.45
2024-05-09T00:30:41.465Z,99967.69
2024-05-09T00:33:10.361Z,99968.47
2024-05-09T00:35:39.620Z,99974.23
2024-05-09T00:38:07.463Z,99975.36
2024-05-09T00:40:40.672Z,99980.77
2024-05-09T00:43:11.407Z,99984.23
2024-05-09T00:45:39.468Z,99981.86
2024-05-09T00:48:09.101Z,99975.36
2024-05-09T00:50:42.108Z,99980.30
2024-05-09T00:53:11.379Z,99980.02
2024-05-09T00:55:39.779Z,99977.41
2024-05-09T00:58:10.308Z,99977.83
2024-05-09T01:00:40.318Z,99975.35
2024-05-09T01:03:11.666Z,99977.17
2024-05-09T01:05:42.870Z,99975.48
2024-05-09T01:08:11.265Z,99977.19
2024-05-09T01:10:40.812Z,99979.56
2024-05-09T01:13:10.414Z,99979.16
2024-05-09T01:15:37.963Z,99973.83
2024-05-09T01:18:11.060Z,99969.15
2024-05-09T01:20:42.973Z,99972.77
2024-05-09T01:23:14.781Z,99971.10
2024-05-09T01:25:44.743Z,99972.25
2024-05-09T01:28:12.706Z,99968.82
2024-05-09T01:30:40.195Z,99968.23
2024-05-09T01:33:09.916Z,99972.27
2024-05-09T01:35:40.361Z,99971.98
2024-05-09T01:38:08.287Z,99971.37
2024-05-09T01:40:38.913Z,99972.17
2024-05-09T01:43:09.109Z,99974.54
2024-05-09T01:45:38.274Z,99973.89
2024-05-09T01:48:06.707Z,99977.52
2024-05-09T01:50:39.584Z,99981.24
2024-05-09T01:53:11.016Z,99980.54
2024-05-09T01:55:38.887Z,99980.86
2024-05-09T01:58:08.477Z,99984.14
2024-05-09T02:00:40.866Z,99987.14
2024-05-09T02:03:14.424Z,99985.48
2024-05-09T02:05:46.732Z,99985.16
2024-05-09T02:08:19.801Z,99985.73
2024-05-09T02:10:48.848Z,99980.52
2024-05-09T02:13:17.080Z,99984.48
2024-05-09T02:15:44.810Z,99981.70
2024-05-09T02:18:13.292Z,99978.30
2024-05-09T02:20:42.928Z,99980.05
2024-05-09T02:23:11.587Z,99977.88
2024-05-09T02:25:40.788Z,99976.33
2024-05-09T02:28:08.258Z,99970.88
2024-05-09T02:30:40.194Z,99966.20
2024-05-09T02:33:11.709Z,99966.63
2024-05-09T02:35:41.969Z,99965.98
2024-05-09T02:38:09.850Z,99971.39
2024-05-09T02:40:39.343Z,99969.67
2024-05-09T02:43:09.937Z,99972.77
2024-05-09T02:45:39.971Z,99975.58
2024-05-09T02:48:13.060Z,99975.63
2024-05-09T02:50:42.070Z,99979.35
2024-05-09T02:53:11.198Z,99977.63
2024-05-09T02:55:39.195Z,99978.16
2024-05-09T02:58:07.626Z,99974.14
2024-05-09T03:00:39.683Z,99974.96
2024-05-09T03:03:12.969Z,99972.48
2024-05-09T03:05:44.644Z,99972.61
2024-05-09T03:08:12.823Z,99976.05
2024-05-09T03:10:40.654Z,99970.80
2024-05-09T03:13:08.922Z,99966.73
2024-05-09T03:15:36.878Z,99968.64
2024-05-09T03:18:05.641Z,99970.78
2024-05-09T03:20:35.651Z,99972.09
2024-05-09T03:23:06.684Z,99971.89
2024-05-09T03:25:34.624Z,99976.59
2024-05-09T03:28:02.258Z,99979.99
2024-05-09T03:30:38.520Z,99980.91
2024-05-09T03:33:15.512Z,99987.39
2024-05-09T03:35:43.822Z,99992.86
2024-05-09T03:38:11.617Z,99991.30
2024-05-09T03:40:46.352Z,99988.10
2024-05-09T03:43:14.260Z,99989.52
2024-05-09T03:45:42.669Z,99988.21
2024-05-09T03:48:10.403Z,99984.27
2024-05-09T03:50:38.462Z,99986.25
2024-05-09T03:53:09.461Z,99983.25
2024-05-09T03:55:37.018Z,99991.65
2024-05-09T03:58:07.492Z,99983.65
2024-05-09T04:00:38.743Z,99983.04
2024-05-09T04:03:10.449Z,99985.52
2024-05-09T04:05:42.320Z,99986.52
2024-05-09T04:08:11.169Z,99985.27
2024-05-09T04:10:40.857Z,99987.36
2024-05-09T04:13:09.955Z,99984.33
2024-05-09T04:15:37.785Z,99988.48
2024-05-09T04:18:05.526Z,99989.05
2024-05-09T04:20:38.409Z,99987.13
2024-05-09T04:23:13.473Z,99990.16
2024-05-09T04:25:43.308Z,99987.44
2024-05-09T04:28:11.024Z,99989.57
2024-05-09T04:30:40.965Z,99988.49
2024-05-09T04:33:11.938Z,99991.52
2024-05-09T04:35:42.627Z,99988.45
2024-05-09T04:38:12.003Z,99988.92
2024-05-09T04:40:39.631Z,99989.48
2024-05-09T04:43:14.620Z,99992.73
2024-05-09T04:45:42.112Z,99997.96
2024-05-09T04:48:09.991Z,99993.45
2024-05-09T04:50:39.284Z,99991.20
2024-05-09T04:53:09.723Z,99987.81
2024-05-09T04:55:38.960Z,99988.45
2024-05-09T04:58:10.286Z,99984.15
2024-05-09T05:00:41.420Z,99981.33
2024-05-09T05:03:13.686Z,99983.43
2024-05-09T05:05:45.224Z,99988.91
2024-05-09T05:08:15.135Z,99991.88
2024-05-09T05:10:43.620Z,99993.80
2024-05-09T05:13:24.883Z,99995.02
2024-05-09T05:15:55.506Z,99991.05
2024-05-09T05:18:23.753Z,99993.63
2024-05-09T05:23:20.250Z,99999.96
2024-05-09T05:25:49.417Z,99996.34
2024-05-09T05:28:17.132Z,99996.78
2024-05-09T05:30:45.075Z,99996.70
2024-05-09T05:33:13.780Z,99999.04
2024-05-09T05:35:41.635Z,99996.84
2024-05-09T05:38:10.260Z,99995.33
2024-05-09T05:40:39.048Z,99993.13
2024-05-09T05:43:09.724Z,99996.67
2024-05-09T05:45:38.611Z,99993.65
2024-05-09T05:48:07.278Z,100000.51
2024-05-09T05:50:37.489Z,100000.52
2024-05-09T05:53:07.903Z,99997.03
2024-05-09T05:55:37.328Z,99991.06
2024-05-09T05:58:05.056Z,99993.21
2024-05-09T06:00:38.775Z,99994.39
2024-05-09T06:03:09.333Z,99997.70
2024-05-09T06:05:43.316Z,100002.19
2024-05-09T06:08:11.419Z,100000.56
2024-05-09T06:10:40.829Z,99999.52
2024-05-09T06:13:12.587Z,100000.36
2024-05-09T06:15:40.942Z,99998.06
2024-05-09T06:18:11.006Z,100000.15
2024-05-09T06:20:41.438Z,99998.41
2024-05-09T06:23:10.123Z,99997.52
2024-05-09T06:25:38.438Z,100001.84
2024-05-09T06:28:06.254Z,99999.20
2024-05-09T06:30:39.970Z,100002.54
2024-05-09T06:33:11.320Z,100000.77
2024-05-09T06:35:40.972Z,99999.46
2024-05-09T06:38:08.788Z,99997.18
2024-05-09T06:40:40.403Z,100000.30
2024-05-09T06:43:18.080Z,100002.66
2024-05-09T06:45:48.837Z,100000.52
2024-05-09T06:48:18.812Z,99995.52
2024-05-09T06:50:47.180Z,99997.35
2024-05-09T06:53:15.617Z,99995.16
2024-05-09T06:55:43.208Z,99996.41
2024-05-09T06:58:10.647Z,99997.62
2024-05-09T07:00:40.659Z,99999.14
2024-05-09T07:03:15.702Z,100005.84
2024-05-09T07:05:46.893Z,100006.90
2024-05-09T07:08:15.915Z,100009.00
2024-05-09T07:10:44.104Z,100007.29
2024-05-09T07:13:13.322Z,100008.91
2024-05-09T07:15:41.593Z,100011.54
2024-05-09T07:18:10.179Z,100004.10
2024-05-09T07:20:38.865Z,100001.16
2024-05-09T07:23:10.595Z,99997.93
2024-05-09T07:25:39.762Z,99995.44
2024-05-09T07:28:11.074Z,99995.21
2024-05-09T07:30:38.498Z,99993.00
2024-05-09T07:33:06.202Z,99993.84
2024-05-09T07:35:34.502Z,99999.89
2024-05-09T07:38:02.227Z,99997.55
2024-05-09T07:40:35.824Z,99995.02
2024-05-09T07:43:05.237Z,99999.58
2024-05-09T07:52:23.683Z,100001.34
2024-05-09T07:53:39.511Z,100001.57
2024-05-09T07:56:11.945Z,100001.20
2024-05-09T07:58:39.898Z,99999.59
2024-05-09T08:01:07.403Z,99995.09
2024-05-09T08:03:35.407Z,99994.55
2024-05-09T08:06:03.486Z,99999.83
2024-05-09T08:08:30.917Z,100005.08
2024-05-09T08:10:58.320Z,100001.34
2024-05-09T08:13:25.730Z,99996.76
2024-05-09T08:15:53.291Z,100000.76
2024-05-09T08:18:20.919Z,100004.32
2024-05-09T08:20:49.540Z,100002.08
2024-05-09T08:23:17.700Z,99996.70
2024-05-09T08:25:45.224Z,99991.84
2024-05-09T08:28:12.875Z,99992.42
2024-05-09T08:30:41.299Z,99987.36
2024-05-09T08:33:08.987Z,99993.45
2024-05-09T08:35:36.465Z,99994.97
2024-05-09T08:38:05.974Z,99994.00
2024-05-09T08:40:36.443Z,99988.69
2024-05-09T08:43:11.237Z,99985.31
2024-05-09T08:45:43.950Z,99982.11
2024-05-09T08:48:15.206Z,99986.45
2024-05-09T08:50:45.292Z,99987.27
2024-05-09T08:53:16.478Z,99988.33
2024-05-09T08:55:45.777Z,99984.05
2024-05-09T08:58:16.316Z,99980.63
2024-05-09T09:00:44.867Z,99979.62
2024-05-09T09:03:17.552Z,99985.03
2024-05-09T09:06:08.704Z,99978.98
2024-05-09T09:08:38.588Z,99980.41
2024-05-09T09:11:06.088Z,99980.89
2024-05-09T09:13:33.645Z,99987.23
2024-05-09T09:16:02.481Z,99991.27
2024-05-09T09:18:30.693Z,99984.38
2024-05-09T09:20:58.492Z,99984.19
2024-05-09T09:23:29.603Z,99981.54
2024-05-09T09:26:00.512Z,99978.45
2024-05-09T09:28:28.202Z,99980.94
2024-05-09T09:31:05.446Z,99979.64
2024-05-09T09:33:35.625Z,99982.51
2024-05-09T09:36:04.690Z,99985.09
2024-05-09T09:38:36.287Z,99979.84
2024-05-09T09:41:07.569Z,99977.77
2024-05-09T09:43:36.831Z,99975.42
2024-05-09T09:46:08.630Z,99973.42
2024-05-09T09:48:38.851Z,99973.29
2024-05-09T09:51:07.653Z,99973.70
2024-05-09T09:53:36.167Z,99971.34
2024-05-09T09:56:07.014Z,99968.77
2024-05-09T09:58:34.684Z,99966.20
2024-05-09T10:01:02.255Z,99969.23
2024-05-09T10:03:30.086Z,99965.85
2024-05-09T10:05:58.233Z,99967.15
2024-05-09T10:08:25.790Z,99967.08
2024-05-09T10:10:53.369Z,99965.85
2024-05-09T10:13:21.277Z,99962.63
2024-05-09T10:15:54.120Z,99958.86
2024-05-09T10:18:26.102Z,99962.77
2024-05-09T10:20:56.226Z,99958.51
2024-05-09T10:23:32.039Z,99956.08
2024-05-09T10:26:04.384Z,99958.10
2024-05-09T10:28:33.160Z,99958.47
2024-05-09T10:31:10.885Z,99960.41
2024-05-09T10:33:40.229Z,99961.18
2024-05-09T10:36:12.477Z,99961.06
2024-05-09T10:38:41.923Z,99961.55
2024-05-09T10:41:10.299Z,99964.81
2024-05-09T10:43:41.541Z,99964.00
2024-05-09T10:46:10.394Z,99964.73
2024-05-09T10:48:39.225Z,99966.24
2024-05-09T10:51:07.684Z,99963.66
2024-05-09T10:53:45.897Z,99964.59
2024-05-09T10:56:14.166Z,99968.73
2024-05-09T10:58:41.775Z,99965.58
2024-05-09T11:01:09.737Z,99954.95
2024-05-09T11:03:37.912Z,99947.14
2024-05-09T11:06:07.319Z,99949.23
2024-05-09T11:08:35.739Z,99942.73
2024-05-09T11:11:06.443Z,99938.31
2024-05-09T11:13:35.542Z,99933.17
2024-05-09T11:16:04.330Z,99937.89
2024-05-09T11:18:36.508Z,99938.41
2024-05-09T11:21:13.194Z,99935.44
2024-05-09T11:23:41.701Z,99933.72
2024-05-09T11:26:10.616Z,99930.98
2024-05-09T11:28:38.186Z,99930.47
2024-05-09T11:31:07.323Z,99930.66
2024-05-09T11:33:40.100Z,99933.42
2024-05-09T11:36:08.392Z,99929.44
2024-05-09T11:38:35.787Z,99931.08
2024-05-09T11:41:04.527Z,99930.30
2024-05-09T11:43:32.667Z,99933.83
2024-05-09T11:46:00.775Z,99935.40
2024-05-09T11:48:28.519Z,99933.23
2024-05-09T11:50:56.184Z,99929.13
2024-05-09T11:53:23.999Z,99926.47
2024-05-09T11:55:51.456Z,99925.56
2024-05-09T11:58:21.264Z,99926.39
2024-05-09T12:00:49.169Z,99918.97
2024-05-09T12:03:16.849Z,99919.34
2024-05-09T12:05:45.127Z,99921.73
2024-05-09T12:08:12.868Z,99920.14
2024-05-09T12:10:40.642Z,99917.17
2024-05-09T12:13:08.479Z,99918.48
2024-05-09T12:15:38.022Z,99917.94
2024-05-09T12:18:07.631Z,99920.76
2024-05-09T12:20:38.894Z,99917.80
2024-05-09T12:23:09.842Z,99916.33
2024-05-09T12:25:39.204Z,99914.11
2024-05-09T12:28:08.342Z,99916.48
2024-05-09T12:30:40.618Z,99915.51
2024-05-09T12:33:11.359Z,99915.73
2024-05-09T12:35:41.389Z,99914.14
2024-05-09T12:38:09.829Z,99913.05
2024-05-09T12:40:38.944Z,99914.86
2024-05-09T12:43:08.171Z,99904.02
2024-05-09T12:45:36.969Z,99904.12
2024-05-09T12:48:08.227Z,99902.36
2024-05-09T12:50:38.289Z,99894.38
2024-05-09T12:53:05.726Z,99892.02
2024-05-09T12:55:41.234Z,99890.53
2024-05-09T12:58:17.612Z,99891.69
2024-05-09T13:00:45.789Z,99889.77
2024-05-09T13:03:14.058Z,99883.90
2024-05-09T13:05:43.962Z,99886.66
2024-05-09T13:08:12.485Z,99888.98
2024-05-09T13:10:40.079Z,99888.89
2024-05-09T13:13:09.756Z,99882.52
2024-05-09T13:15:37.762Z,99882.38
2024-05-09T13:18:06.282Z,99880.29
2024-05-09T13:20:36.200Z,99878.41
2024-05-09T13:23:05.657Z,99874.97
2024-05-09T13:25:35.276Z,99869.92
2024-05-09T13:28:04.174Z,99865.96
2024-05-09T13:30:39.271Z,99862.42
2024-05-09T13:33:11.789Z,99857.83
2024-05-09T13:35:47.386Z,99855.67
2024-05-09T13:38:19.195Z,99854.30
2024-05-09T13:40:47.334Z,99854.59
2024-05-09T13:43:15.599Z,99850.95
2024-05-09T13:45:43.568Z,99851.33
2024-05-09T13:48:11.494Z,99850.09
2024-05-09T13:50:39.383Z,99849.24
2024-05-09T13:53:08.512Z,99850.38
2024-05-09T13:55:38.300Z,99849.44
2024-05-09T13:58:06.449Z,99848.14
2024-05-09T14:00:44.151Z,99844.79
2024-05-09T14:03:18.257Z,99839.70
2024-05-09T14:05:49.324Z,99837.95
2024-05-09T14:08:19.242Z,99833.66
2024-05-09T14:10:47.395Z,99829.27
2024-05-09T14:13:15.807Z,99827.26
2024-05-09T14:15:43.688Z,99825.89
2024-05-09T14:18:13.720Z,99826.17
2024-05-09T14:20:42.879Z,99822.26
2024-05-09T14:23:10.597Z,99815.46
2024-05-09T14:25:42.051Z,99811.93
2024-05-09T14:28:12.420Z,99812.27
2024-05-09T14:30:41.620Z,99810.04
2024-05-09T14:33:09.761Z,99813.10
2024-05-09T14:35:38.400Z,99807.34
2024-05-09T14:38:07.433Z,99801.17
2024-05-09T14:40:41.317Z,99799.17
2024-05-09T14:43:13.134Z,99799.13
2024-05-09T14:45:41.623Z,99796.10
2024-05-09T14:48:10.146Z,99796.65
2024-05-09T14:50:39.723Z,99795.46
2024-05-09T14:53:10.394Z,99791.77
2024-05-09T14:55:40.451Z,99791.72
2024-05-09T14:58:10.863Z,99790.29
2024-05-09T15:00:45.907Z,99785.40
2024-05-09T15:03:18.941Z,99787.47
2024-05-09T15:05:47.334Z,99779.23
2024-05-09T15:08:17.072Z,99781.77
2024-05-09T15:10:44.772Z,99781.94
2024-05-09T15:13:14.384Z,99774.13
2024-05-09T15:15:43.985Z,99772.49
2024-05-09T15:18:11.684Z,99764.42
2024-05-09T15:20:40.289Z,99763.50
2024-05-09T15:23:08.106Z,99758.52
2024-05-09T15:25:36.616Z,99751.14
2024-05-09T15:28:06.978Z,99751.34
2024-05-09T15:30:35.122Z,99747.71
2024-05-09T15:33:03.528Z,99744.63
2024-05-09T15:35:31.760Z,99739.93
2024-05-09T15:37:59.969Z,99743.73
2024-05-09T15:40:36.085Z,99734.97
2024-05-09T15:43:09.332Z,99739.45
2024-05-09T15:45:39.284Z,99735.47
2024-05-09T15:48:08.162Z,99730.82
2024-05-09T15:50:39.925Z,99730.37
2024-05-09T15:53:10.965Z,99729.50
2024-05-09T15:55:39.467Z,99720.36
2024-05-09T15:58:07.575Z,99724.58
2024-05-09T16:00:39.628Z,99719.92
2024-05-09T16:03:11.301Z,99717.59
2024-05-09T16:05:40.522Z,99716.38
2024-05-09T16:08:08.573Z,99717.38
2024-05-09T16:10:39.886Z,99716.23
2024-05-09T16:13:08.397Z,99719.70
2024-05-09T16:15:35.989Z,99717.20
2024-05-09T16:18:03.800Z,99716.59
2024-05-09T16:20:38.923Z,99717.24
2024-05-09T16:23:09.747Z,99716.88
2024-05-09T16:25:37.561Z,99719.36
2024-05-09T16:28:08.847Z,99721.12
2024-05-09T16:30:39.608Z,99721.21
2024-05-09T16:33:08.620Z,99718.73
2024-05-09T16:35:40.361Z,99719.58
2024-05-09T16:38:07.947Z,99720.42
2024-05-09T16:40:39.887Z,99715.59
2024-05-09T16:43:10.598Z,99717.13
2024-05-09T16:45:39.735Z,99716.05
2024-05-09T16:48:08.142Z,99716.37
2024-05-09T16:50:36.606Z,99719.35
2024-05-09T16:53:05.873Z,99714.58
2024-05-09T16:55:35.087Z,99711.77
2024-05-09T16:58:03.424Z,99713.66
2024-05-09T17:00:39.487Z,99714.20
2024-05-09T17:03:13.040Z,99710.58
2024-05-09T17:05:42.661Z,99710.24
2024-05-09T17:08:10.756Z,99703.58
2024-05-09T17:10:38.503Z,99706.71
2024-05-09T17:13:07.714Z,99705.84
2024-05-09T17:15:37.115Z,99704.30
2024-05-09T17:18:07.083Z,99702.81
2024-05-09T17:20:37.304Z,99702.61
2024-05-09T17:23:12.280Z,99700.45
2024-05-09T17:25:40.104Z,99700.71
2024-05-09T17:28:09.010Z,99698.64
2024-05-09T17:30:39.050Z,99696.02
2024-05-09T17:33:09.633Z,99697.08
2024-05-09T17:35:38.241Z,99693.21
2024-05-09T17:38:06.209Z,99691.80
2024-05-09T17:40:36.524Z,99687.60
2024-05-09T17:43:08.446Z,99685.24
2024-05-09T17:45:39.844Z,99684.48
2024-05-09T17:48:09.578Z,99688.32
2024-05-09T17:50:38.587Z,99687.70
2024-05-09T17:53:06.857Z,99690.33
2024-05-09T17:55:35.216Z,99696.09
2024-05-09T17:58:03.944Z,99696.39
2024-05-09T18:00:38.632Z,99699.02
2024-05-09T18:03:13.417Z,99703.90
2024-05-09T18:05:44.696Z,99698.14
2024-05-09T18:08:13.666Z,99699.62
2024-05-09T18:10:42.053Z,99700.92
2024-05-09T18:13:11.781Z,99699.99
2024-05-09T18:15:40.469Z,99701.48
2024-05-09T18:18:08.917Z,99702.16
2024-05-09T18:20:42.647Z,99702.52
2024-05-09T18:23:15.715Z,99702.96
2024-05-09T18:25:45.437Z,99706.28
2024-05-09T18:28:13.141Z,99708.23
2024-05-09T18:30:40.969Z,99709.80
2024-05-09T18:33:10.374Z,99710.65
2024-05-09T18:35:38.756Z,99712.17
2024-05-09T18:38:06.302Z,99712.16
2024-05-09T18:40:36.735Z,99713.16
2024-05-09T18:43:07.805Z,99715.81
2024-05-09T18:45:38.041Z,99720.06
2024-05-09T18:48:08.253Z,99723.04
2024-05-09T18:50:39.690Z,99726.40
2024-05-09T18:53:12.558Z,99729.77
2024-05-09T18:55:41.604Z,99726.47
2024-05-09T18:58:09.508Z,99723.67
2024-05-09T19:00:40.081Z,99724.38
2024-05-09T19:03:12.669Z,99723.98
2024-05-09T19:05:43.757Z,99725.79
2024-05-09T19:08:12.812Z,99724.75
2024-05-09T19:10:40.878Z,99726.20
2024-05-09T19:13:12.007Z,99723.25
2024-05-09T19:15:42.568Z,99720.53
2024-05-09T19:18:12.586Z,99727.55
2024-05-09T19:20:40.658Z,99726.48
2024-05-09T19:23:08.311Z,99721.22
2024-05-09T19:25:36.483Z,99725.69
2024-05-09T19:28:05.651Z,99727.31
2024-05-09T19:30:39.311Z,99725.29
2024-05-09T19:33:13.691Z,99728.95
2024-05-09T19:35:43.114Z,99725.08
2024-05-09T19:38:11.563Z,99728.35
2024-05-09T19:40:39.301Z,99725.88
2024-05-09T19:43:07.316Z,99729.14
2024-05-09T19:45:36.419Z,99725.64
2024-05-09T19:48:06.236Z,99726.48
2024-05-09T19:50:41.140Z,99728.67
2024-05-09T19:53:13.935Z,99731.10
2024-05-09T19:55:42.314Z,99726.35
2024-05-09T19:58:11.556Z,99729.85
2024-05-09T20:00:42.306Z,99730.50
2024-05-09T20:03:12.973Z,99726.81
2024-05-09T20:05:45.853Z,99731.41
2024-05-09T20:08:14.493Z,99728.69
2024-05-09T20:10:42.346Z,99736.77
2024-05-09T20:13:10.258Z,99734.95
2024-05-09T20:15:38.370Z,99736.08
2024-05-09T20:18:06.763Z,99735.67
2024-05-09T20:20:39.367Z,99741.89
2024-05-09T20:23:13.624Z,99735.11
2024-05-09T20:25:42.080Z,99737.73
2024-05-09T20:28:10.536Z,99739.55
2024-05-09T20:30:38.480Z,99736.44
2024-05-09T20:33:07.726Z,99736.52
2024-05-09T20:35:36.730Z,99738.00
2024-05-09T20:38:04.992Z,99740.25
2024-05-09T20:40:36.476Z,99737.37
2024-05-09T20:43:10.326Z,99733.16
2024-05-09T20:45:39.946Z,99742.21
2024-05-09T20:48:08.833Z,99737.59
2024-05-09T20:50:40.500Z,99736.95
2024-05-09T20:53:14.530Z,99735.96
2024-05-09T20:55:44.114Z,99736.63
2024-05-09T20:58:12.994Z,99731.64
2024-05-09T21:00:44.628Z,99727.91
2024-05-09T21:03:16.164Z,99728.43
2024-05-09T21:05:45.714Z,99730.98
2024-05-09T21:08:13.591Z,99731.02
2024-05-09T21:10:41.311Z,99730.00
2024-05-09T21:13:09.045Z,99733.46
2024-05-09T21:15:36.818Z,99731.23
2024-05-09T21:18:05.087Z,99731.33
2024-05-09T21:20:34.079Z,99727.20
2024-05-09T21:23:02.521Z,99724.09
2024-05-09T21:25:31.035Z,99721.73
2024-05-09T21:27:58.712Z,99721.61
2024-05-09T21:30:37.050Z,99722.80
2024-05-09T21:33:10.473Z,99713.54
2024-05-09T21:35:40.342Z,99712.90
2024-05-09T21:38:08.075Z,99711.66
2024-05-09T21:40:37.331Z,99710.70
2024-05-09T21:43:08.998Z,99713.52
2024-05-09T21:45:37.182Z,99710.52
2024-05-09T21:48:06.559Z,99708.13
2024-05-09T21:50:40.092Z,99706.30
2024-05-09T21:53:10.932Z,99708.21
2024-05-09T21:55:38.721Z,99706.98
2024-05-09T21:58:06.319Z,99709.12
2024-05-09T22:00:37.942Z,99706.42
2024-05-09T22:03:07.489Z,99709.11
2024-05-09T22:05:37.170Z,99708.55
2024-05-09T22:08:05.316Z,99707.77
2024-05-09T22:10:35.469Z,99703.81
2024-05-09T22:13:05.795Z,99706.64
2024-05-09T22:15:35.222Z,99706.25
2024-05-09T22:18:03.259Z,99707.13
2024-05-09T22:20:36.857Z,99708.34
2024-05-09T22:23:07.684Z,99708.85
2024-05-09T22:25:36.461Z,99708.48
2024-05-09T22:28:04.757Z,99703.99
2024-05-09T22:30:37.177Z,99705.38
2024-05-09T22:33:08.494Z,99705.40
2024-05-09T22:35:37.177Z,99702.73
2024-05-09T22:38:05.156Z,99702.32
2024-05-09T22:40:42.384Z,99699.74
2024-05-09T22:43:20.308Z,99698.10
2024-05-09T22:45:48.800Z,99700.02
2024-05-09T22:48:16.483Z,99699.02
2024-05-09T22:50:44.572Z,99695.71
2024-05-09T22:53:12.016Z,99696.08
2024-05-09T22:55:39.543Z,99693.46
2024-05-09T22:58:07.087Z,99694.36
2024-05-09T23:00:34.980Z,99695.20
2024-05-09T23:03:03.215Z,99689.83
2024-05-09T23:05:34.295Z,99693.35
2024-05-09T23:08:02.310Z,99691.98
2024-05-09T23:10:35.329Z,99694.04
2024-05-09T23:13:06.345Z,99692.83
2024-05-09T23:15:34.120Z,99691.64
2024-05-09T23:18:01.762Z,99688.16
2024-05-09T23:20:36.513Z,99686.95
2024-05-09T23:23:07.807Z,99684.98
2024-05-09T23:25:36.524Z,99683.02
2024-05-09T23:28:04.801Z,99680.51
2024-05-09T23:30:37.808Z,99681.02
2024-05-09T23:33:12.685Z,99677.55
2024-05-09T23:35:42.104Z,99678.06
2024-05-09T23:38:09.647Z,99676.20
2024-05-09T23:40:40.190Z,99673.71
2024-05-09T23:43:10.485Z,99675.48
2024-05-09T23:45:38.705Z,99673.70
2024-05-09T23:48:07.339Z,99670.73
2024-05-09T23:50:37.802Z,99667.36
2024-05-09T23:53:08.634Z,99663.54
2024-05-09T23:55:38.073Z,99666.55
2024-05-09T23:58:07.011Z,99665.98
